OS65 weather

Shayrat Air Base
Shayrat, Homs Governorate, Syria

Public forecast

Using degrees Celsius for public forecast. Weather courtesy of forecast.io.

Closest aviation weather report (METAR) to Shayrat Air Base

Closest report is Damascus International Airport, 67.7 nm (125.3 km) SSW. Retrieved 2019/12/08 23:00 UTC (59 minutes ago):

OSDI 082300Z 18006KT 7000-RA SCT026 BKN030 09/08 Q1015

Closest aviation forecast (TAF) to Shayrat Air Base

Forecast is more than 6 hours old.

Closest forecast is Damascus International Airport, 67.7 nm (125.3 km) SSW. Retrieved 2019/12/08 12:03 UTC (12 hours ago):

TAF TAF OSDI 081000Z 0812/0918 17010KT 9999 FEW030 SCT100 TEMPO 0812/0918 22015G25KT 6000 SHRA FEW025CB SCT030 BKN090